Chanute Martin Johnson Airport
KCNU : now visible

Airfield :











YOU CAN JOIN US ON...

 
LOGIN :

Register | Disclaimer

   EN    FR    IT 

 









Legend :    VFR   Marginal VFR   IFR   Intensive IFR   Very Intensive IFR
Visi :
Ceiling :
>= 8 km
>= 3000ft
5 to 8 km
1000 to 3000 ft
1500m to 5 km
500 to 1000 ft
800 to 1500m
200 to 500 ft
< 800m
< 200 ft
Symbols :   Thunderstorms  Fog  Heavy snow  Heavy precipitations  Wind > 20 kt






- Airport Elevation : 1002 ft


KCNU - Chanute Martin Johnson

CURRENT METAR :
  • 200852Z AUTO 00000KT 1/4SM FG VV002 09/07 A2984 RMK AO2 SLP100 T00890067 56004

EXPIRED METARs :
  • 200835Z AUTO 00000KT 1/4SM FG VV001 09/08 A2984 RMK AO2 T00890078
  • 200826Z AUTO 11003KT 1 1/2SM BR CLR 09/08 A2984 RMK AO2 T00890083
  • 200752Z AUTO 12004KT 5SM BR CLR 10/09 A2984 RMK AO2 SLP100 T01000089
  • 200652Z AUTO 10004KT 7SM CLR 10/09 A2984 RMK AO2 SLP100 T01000089

TAF KCNU
Valid from the 20 at 09:00 until the 21 at 06:00 UTC


200853Z 2009/2106 00000KT 1/4SM FG VV001
FM201400 11005KT 3/4SM BR OVC002
TEMPO 2014/2016 2SM BR OVC004
FM201600 11009KT 5SM BR OVC008
FM201800 14013KT P6SM SCT020
FM202000 16017G22KT P6SM SCT030 BKN200
FM210100 18007KT P6SM VCTS SCT035CB BKN060



MET'MAP, your aeronautical weather chart ! - Copyright ORBIFLY December 2007 - Disclaimer

ORBIFLY MET'MAP TEAM :

Programming & Development : Alexandra Zaïnal
Concept & Development : Baudouin d'Aumeries
Co-Development & Prog : Marc-Olivier Méhu
Technical & hardware support : Manuel Goepfert

Contact : metmap@orbifly.com




SOURCES & CREDITS :

   NOAA       Earth
Advisory